createdAt,value
2019-06-07T00:00:59.207Z,15.53
2019-06-07T00:03:40.758Z,14.30
2019-06-07T00:06:23.768Z,14.45
2019-06-07T00:08:55.592Z,13.28
2019-06-07T00:11:34.186Z,13.90
2019-06-07T00:14:37.960Z,13.43
2019-06-07T00:31:11.443Z,13.55
2019-06-07T00:46:41.675Z,14.55
2019-06-07T00:50:05.632Z,13.72
2019-06-07T00:55:27.560Z,14.58
2019-06-07T00:58:00.563Z,13.95
2019-06-07T01:00:35.802Z,16.75
2019-06-07T01:03:10.281Z,14.50
2019-06-07T01:05:45.914Z,14.30
2019-06-07T01:08:22.723Z,14.47
2019-06-07T01:10:56.264Z,16.35
2019-06-07T01:13:31.892Z,15.65
2019-06-07T01:16:08.123Z,14.93
2019-06-07T01:18:46.617Z,14.90
2019-06-07T01:21:21.733Z,18.00
2019-06-07T01:24:11.468Z,14.47
2019-06-07T01:26:34.740Z,14.15
2019-06-07T01:29:09.915Z,13.40
2019-06-07T01:31:44.342Z,15.45
2019-06-07T01:34:21.233Z,16.48
2019-06-07T01:36:57.140Z,15.13
2019-06-07T01:39:32.123Z,15.00
2019-06-07T01:42:08.205Z,16.85
2019-06-07T01:44:43.920Z,17.07
2019-06-07T01:47:43.508Z,17.80
2019-06-07T01:51:05.539Z,17.10
2019-06-07T01:53:41.866Z,16.80
2019-06-07T01:56:18.363Z,16.93
2019-06-07T01:58:52.777Z,16.42
2019-06-07T02:01:29.698Z,17.25
2019-06-07T02:04:01.987Z,18.10
2019-06-07T02:06:36.011Z,19.35
2019-06-07T02:09:10.087Z,20.17
2019-06-07T02:11:43.913Z,18.50
2019-06-07T02:14:27.356Z,18.50
2019-06-07T02:16:59.929Z,18.60
2019-06-07T02:19:34.708Z,16.80
2019-06-07T02:22:09.114Z,17.10
2019-06-07T02:24:44.674Z,16.48
2019-06-07T02:27:18.448Z,21.93
2019-06-07T02:29:52.226Z,18.07
2019-06-07T02:32:29.828Z,17.00
2019-06-07T02:35:03.024Z,16.45
2019-06-07T02:37:37.651Z,17.20
2019-06-07T02:40:14.721Z,18.32
2019-06-07T02:42:50.159Z,17.48
2019-06-07T02:45:26.011Z,17.40
2019-06-07T02:48:01.903Z,18.05
2019-06-07T02:51:27.332Z,17.05
2019-06-07T02:54:01.203Z,16.17
2019-06-07T02:56:54.106Z,17.40
2019-06-07T02:59:12.789Z,18.12
2019-06-07T03:01:49.763Z,15.95
2019-06-07T03:04:27.206Z,21.00
2019-06-07T03:07:04.587Z,15.58
2019-06-07T03:09:39.958Z,16.45
2019-06-07T03:12:29.618Z,16.20
2019-06-07T03:22:17.154Z,14.00
2019-06-07T03:25:28.203Z,14.20
2019-06-07T03:28:35.572Z,15.48
2019-06-07T03:31:11.225Z,13.48
2019-06-07T03:33:47.958Z,13.30
2019-06-07T03:36:29.689Z,17.17
2019-06-07T03:39:42.341Z,13.72
2019-06-07T03:45:54.766Z,12.50
2019-06-07T03:53:56.396Z,15.35
2019-06-07T03:57:06.824Z,14.25
2019-06-07T04:01:05.574Z,16.55
2019-06-07T04:03:50.650Z,17.70
2019-06-07T04:06:16.761Z,15.95
2019-06-07T04:08:50.112Z,15.20
2019-06-07T04:11:23.794Z,16.05
2019-06-07T04:13:58.088Z,14.98
2019-06-07T04:16:34.838Z,15.63
2019-06-07T04:19:07.675Z,14.13
2019-06-07T04:21:42.993Z,17.05
2019-06-07T04:24:16.459Z,20.12
2019-06-07T04:26:50.197Z,17.92
2019-06-07T04:29:33.997Z,16.77
2019-06-07T04:31:58.660Z,19.32
2019-06-07T04:34:34.974Z,14.53
2019-06-07T04:37:13.269Z,16.40
2019-06-07T04:40:16.754Z,18.20
2019-06-07T04:49:22.167Z,17.27
2019-06-07T04:51:57.452Z,16.57
2019-06-07T04:54:32.981Z,16.30
2019-06-07T04:57:07.204Z,14.60
2019-06-07T05:00:10.943Z,16.52
2019-06-07T05:02:18.433Z,16.42
2019-06-07T05:05:29.299Z,14.43
2019-06-07T05:08:07.429Z,15.23
2019-06-07T05:10:43.440Z,14.75
2019-06-07T05:13:14.876Z,12.73
2019-06-07T05:15:48.466Z,14.20
2019-06-07T05:18:21.987Z,16.55
2019-06-07T05:20:55.684Z,14.83
2019-06-07T05:24:04.891Z,13.40
2019-06-07T05:26:04.288Z,13.62
2019-06-07T05:28:42.346Z,13.38
2019-06-07T05:31:13.468Z,16.00
2019-06-07T05:33:46.938Z,15.88
2019-06-07T05:36:20.853Z,18.00
2019-06-07T05:38:54.209Z,14.60
2019-06-07T05:41:27.639Z,18.62
2019-06-07T05:44:12.243Z,16.55
2019-06-07T05:46:38.618Z,14.80
2019-06-07T05:49:12.411Z,14.83
2019-06-07T05:51:45.892Z,15.03
2019-06-07T05:54:22.675Z,15.88
2019-06-07T05:56:57.437Z,14.83
2019-06-07T05:59:30.621Z,13.30
2019-06-07T06:02:21.503Z,13.62
2019-06-07T06:04:44.906Z,16.00
2019-06-07T06:07:14.627Z,13.15
2019-06-07T06:09:48.097Z,12.03
2019-06-07T06:12:34.567Z,12.18
2019-06-07T06:14:56.677Z,12.07
2019-06-07T06:17:30.224Z,10.00
2019-06-07T06:20:03.628Z,8.35
2019-06-07T06:22:40.093Z,9.58
2019-06-07T06:28:10.802Z,6.80
2019-06-07T06:30:22.988Z,7.30
2019-06-07T06:32:58.544Z,6.85
2019-06-07T06:35:32.761Z,6.47
2019-06-07T06:38:06.078Z,6.10
2019-06-07T06:40:43.314Z,8.30
2019-06-07T06:43:14.352Z,8.68
2019-06-07T06:45:50.673Z,6.95
2019-06-07T06:48:23.948Z,6.20
2019-06-07T06:50:57.264Z,6.60
2019-06-07T06:53:30.634Z,6.85
2019-06-07T06:56:03.879Z,8.33
2019-06-07T06:59:25.185Z,8.15
2019-06-07T07:01:12.581Z,7.42
2019-06-07T07:04:09.186Z,8.85
2019-06-07T07:06:26.236Z,8.90
2019-06-07T07:09:00.295Z,9.78
2019-06-07T07:11:34.052Z,10.23
2019-06-07T07:14:07.814Z,10.50
2019-06-07T07:16:42.244Z,12.47
2019-06-07T07:19:16.749Z,10.65
2019-06-07T07:21:53.104Z,10.63
2019-06-07T07:24:26.357Z,14.05
2019-06-07T07:27:00.022Z,14.00
2019-06-07T07:29:33.768Z,15.93
2019-06-07T07:32:07.588Z,19.37
2019-06-07T07:34:41.342Z,16.95
2019-06-07T07:37:15.038Z,14.53
2019-06-07T07:39:52.975Z,15.18
2019-06-07T07:42:24.258Z,23.50
2019-06-07T07:44:57.929Z,23.12
2019-06-07T07:47:31.614Z,16.50
2019-06-07T07:50:05.400Z,13.25
2019-06-07T07:52:39.377Z,15.88
2019-06-07T07:55:13.115Z,14.35
2019-06-07T07:57:49.463Z,12.03
2019-06-07T08:00:50.189Z,11.08
2019-06-07T08:03:04.149Z,11.33
2019-06-07T08:05:42.857Z,10.43
2019-06-07T08:08:11.203Z,9.50
2019-06-07T08:10:50.390Z,9.55
2019-06-07T08:13:26.386Z,9.15
2019-06-07T08:16:05.063Z,8.88
2019-06-07T08:18:35.548Z,7.87
2019-06-07T08:21:24.789Z,7.58
2019-06-07T08:23:44.592Z,9.38
2019-06-07T08:26:18.412Z,7.17
2019-06-07T08:28:55.873Z,7.95
2019-06-07T08:31:27.552Z,6.20
2019-06-07T08:34:01.338Z,9.50
2019-06-07T08:36:42.041Z,7.97
2019-06-07T08:39:10.884Z,7.62
2019-06-07T08:41:54.022Z,8.35
2019-06-07T08:44:23.819Z,7.15
2019-06-07T08:47:11.597Z,6.72
2019-06-07T08:49:28.460Z,10.80
2019-06-07T08:52:09.851Z,7.10
2019-06-07T08:54:36.448Z,7.55
2019-06-07T08:57:20.526Z,5.90
2019-06-07T08:59:44.938Z,9.30
2019-06-07T09:02:23.766Z,6.15
2019-06-07T09:04:56.423Z,8.25
2019-06-07T09:07:27.794Z,6.47
2019-06-07T09:10:09.516Z,7.25
2019-06-07T09:12:36.905Z,6.87
2019-06-07T09:15:21.331Z,5.92
2019-06-07T09:18:30.530Z,6.75
2019-06-07T09:20:36.315Z,6.47
2019-06-07T09:23:06.180Z,5.75
2019-06-07T09:25:52.414Z,6.30
2019-06-07T09:28:18.789Z,6.42
2019-06-07T09:30:46.997Z,5.90
2019-06-07T09:33:20.199Z,5.55
2019-06-07T09:35:54.028Z,4.90
2019-06-07T09:38:27.261Z,4.62
2019-06-07T09:41:08.097Z,8.83
2019-06-07T09:44:21.453Z,4.70
2019-06-07T09:46:41.946Z,7.08
2019-06-07T09:49:28.997Z,7.45
2019-06-07T09:51:51.507Z,5.70
2019-06-07T09:55:02.937Z,5.22
2019-06-07T09:57:02.634Z,5.40
2019-06-07T09:59:34.871Z,4.65
2019-06-07T10:02:13.203Z,7.47
2019-06-07T10:04:43.239Z,6.22
2019-06-07T10:07:30.583Z,5.10
2019-06-07T10:12:26.551Z,7.80
2019-06-07T10:15:00.649Z,6.00
2019-06-07T10:17:36.721Z,4.80
2019-06-07T10:20:10.842Z,5.72
2019-06-07T10:22:44.146Z,8.30
2019-06-07T10:25:17.596Z,5.30
2019-06-07T10:27:50.858Z,5.35
2019-06-07T10:30:24.441Z,7.17
2019-06-07T10:32:57.873Z,5.85
2019-06-07T10:35:31.352Z,5.12
2019-06-07T10:38:04.807Z,7.95
2019-06-07T10:40:38.201Z,6.30
2019-06-07T10:43:14.430Z,4.83
2019-06-07T10:45:46.553Z,5.37
2019-06-07T10:48:19.955Z,5.55
2019-06-07T10:50:53.292Z,5.05
2019-06-07T10:53:26.631Z,5.65
2019-06-07T10:55:59.770Z,5.12
2019-06-07T10:58:33.034Z,7.37
2019-06-07T11:01:07.326Z,5.72
2019-06-07T11:03:40.778Z,5.67
2019-06-07T11:06:16.693Z,4.87
2019-06-07T11:08:50.445Z,5.33
2019-06-07T11:11:23.794Z,5.65
2019-06-07T11:13:57.181Z,8.55
2019-06-07T11:16:32.155Z,5.45
2019-06-07T11:19:06.179Z,4.05
2019-06-07T11:21:39.578Z,4.95
2019-06-07T11:24:14.355Z,4.75
2019-06-07T11:26:48.113Z,6.12
2019-06-07T11:29:23.041Z,4.25
2019-06-07T11:31:56.475Z,4.15
2019-06-07T11:34:29.778Z,41.28
2019-06-07T11:37:03.815Z,4.55
2019-06-07T11:39:37.259Z,4.70
2019-06-07T11:42:11.962Z,6.15
2019-06-07T11:44:56.284Z,5.62
2019-06-07T11:47:20.679Z,4.00
2019-06-07T11:49:54.069Z,4.67
2019-06-07T11:52:27.931Z,8.35
2019-06-07T11:55:01.419Z,3.83
2019-06-07T11:57:35.928Z,10.80
2019-06-07T12:00:13.997Z,5.45
2019-06-07T12:02:47.932Z,6.95
2019-06-07T12:05:21.297Z,5.53
2019-06-07T12:07:57.091Z,5.45
2019-06-07T12:10:41.815Z,8.63
2019-06-07T12:13:04.794Z,5.60
2019-06-07T12:15:38.082Z,10.88
2019-06-07T12:18:11.315Z,4.33
2019-06-07T12:20:44.444Z,4.45
2019-06-07T12:23:18.096Z,11.30
2019-06-07T12:25:51.741Z,4.12
2019-06-07T12:28:25.022Z,6.30
2019-06-07T12:30:59.577Z,7.83
2019-06-07T12:33:32.759Z,6.97
2019-06-07T12:36:06.120Z,6.92
2019-06-07T12:38:39.429Z,5.03
2019-06-07T12:41:12.526Z,5.62
2019-06-07T12:43:45.749Z,5.58
2019-06-07T12:46:22.964Z,4.37
2019-06-07T12:48:53.849Z,6.20
2019-06-07T12:51:26.990Z,5.25
2019-06-07T12:54:00.165Z,5.17
2019-06-07T12:56:33.393Z,5.67
2019-06-07T12:59:06.559Z,5.83
2019-06-07T13:01:39.763Z,4.85
2019-06-07T13:04:14.354Z,5.00
2019-06-07T13:06:47.659Z,5.37
2019-06-07T13:09:21.873Z,5.17
2019-06-07T13:11:55.162Z,6.12
2019-06-07T13:14:28.564Z,5.90
2019-06-07T13:17:01.964Z,6.50
2019-06-07T13:19:35.146Z,9.33
2019-06-07T13:22:08.334Z,4.20
2019-06-07T13:24:42.159Z,5.17
2019-06-07T13:27:16.239Z,6.37
2019-06-07T13:29:49.764Z,6.87
2019-06-07T13:32:23.729Z,6.28
2019-06-07T13:34:56.951Z,11.12
2019-06-07T13:37:30.873Z,7.37
2019-06-07T13:40:04.205Z,4.62
2019-06-07T13:42:37.517Z,4.12
2019-06-07T13:45:11.265Z,5.05
2019-06-07T13:47:44.546Z,8.50
2019-06-07T13:50:19.493Z,4.10
2019-06-07T13:52:52.950Z,4.08
2019-06-07T13:55:29.342Z,6.25
2019-06-07T13:58:03.194Z,4.08
2019-06-07T14:00:37.069Z,5.30
2019-06-07T14:03:11.242Z,6.35
2019-06-07T14:05:44.651Z,5.22
2019-06-07T14:08:19.011Z,5.62
2019-06-07T14:10:52.334Z,4.58
2019-06-07T14:13:25.808Z,4.53
2019-06-07T14:15:59.065Z,5.92
2019-06-07T14:18:32.239Z,7.47
2019-06-07T14:21:05.578Z,5.08
2019-06-07T14:23:48.439Z,5.30
2019-06-07T14:26:17.187Z,6.78
2019-06-07T14:28:50.720Z,4.70
2019-06-07T14:31:24.601Z,5.58
2019-06-07T14:33:58.253Z,3.92
2019-06-07T14:36:33.162Z,4.42
2019-06-07T14:39:07.910Z,4.03
2019-06-07T14:41:41.090Z,6.45
2019-06-07T14:44:14.325Z,4.60
2019-06-07T14:46:47.532Z,5.62
2019-06-07T14:49:21.814Z,3.77
2019-06-07T14:51:54.985Z,6.50
2019-06-07T14:54:33.463Z,4.20
2019-06-07T14:57:03.799Z,6.12
2019-06-07T14:59:37.021Z,4.20
2019-06-07T15:02:10.227Z,3.75
2019-06-07T15:04:44.927Z,4.42
2019-06-07T15:07:18.196Z,7.67
2019-06-07T15:09:51.366Z,6.67
2019-06-07T15:12:25.842Z,5.90
2019-06-07T15:14:59.525Z,5.60
2019-06-07T15:17:33.419Z,6.85
2019-06-07T15:20:08.579Z,3.95
2019-06-07T15:22:41.827Z,5.05
2019-06-07T15:25:16.038Z,8.03
2019-06-07T15:27:49.898Z,5.53
2019-06-07T15:30:27.897Z,6.00
2019-06-07T15:33:01.764Z,5.95
2019-06-07T15:35:37.752Z,12.75
2019-06-07T15:38:12.008Z,9.10
2019-06-07T15:40:46.647Z,7.45
2019-06-07T15:43:21.006Z,4.85
2019-06-07T15:45:56.159Z,4.50
2019-06-07T15:48:31.900Z,6.35
2019-06-07T15:51:08.448Z,6.67
2019-06-07T15:53:44.708Z,6.08
2019-06-07T15:56:18.365Z,9.75
2019-06-07T15:58:52.737Z,10.48
2019-06-07T16:02:11.785Z,5.08
2019-06-07T16:28:19.783Z,6.58
2019-06-07T16:31:25.112Z,12.20
2019-06-07T16:34:07.128Z,8.38
2019-06-07T16:36:46.816Z,9.58
2019-06-07T16:39:24.274Z,8.13
2019-06-07T16:42:01.837Z,7.45
2019-06-07T16:45:14.982Z,12.25
2019-06-07T16:48:54.579Z,8.03
2019-06-07T16:51:59.493Z,8.50
2019-06-07T16:54:37.313Z,7.30
2019-06-07T16:57:11.862Z,10.43
2019-06-07T16:59:55.051Z,8.20
2019-06-07T17:07:25.724Z,11.53
2019-06-07T17:10:00.236Z,7.40
2019-06-07T17:12:34.263Z,6.72
2019-06-07T17:15:10.641Z,6.25
2019-06-07T17:17:45.329Z,8.10
2019-06-07T17:20:19.909Z,8.55
2019-06-07T17:22:55.253Z,6.17
2019-06-07T17:25:29.031Z,7.67
2019-06-07T17:28:02.709Z,11.38
2019-06-07T17:30:36.419Z,10.13
2019-06-07T17:33:09.960Z,8.35
2019-06-07T17:35:44.679Z,8.23
2019-06-07T17:38:18.325Z,8.28
2019-06-07T17:40:51.970Z,9.60
2019-06-07T17:43:25.683Z,6.70
2019-06-07T17:45:59.206Z,7.35
2019-06-07T17:48:32.880Z,11.55
2019-06-07T18:07:25.190Z,11.38
2019-06-07T18:10:10.866Z,11.18
2019-06-07T18:12:48.139Z,19.02
2019-06-07T18:15:30.553Z,15.38
2019-06-07T18:18:16.008Z,7.83
2019-06-07T18:20:51.493Z,25.95
2019-06-07T18:23:26.396Z,8.63
2019-06-07T18:29:00.787Z,7.65
2019-06-07T18:31:38.007Z,9.05
2019-06-07T18:34:14.707Z,14.05
2019-06-07T18:36:50.925Z,12.75
2019-06-07T18:39:27.178Z,10.55
2019-06-07T18:42:05.771Z,10.45
2019-06-07T18:44:45.173Z,11.57
2019-06-07T18:47:26.650Z,11.03
2019-06-07T18:50:11.138Z,11.63
2019-06-07T18:52:46.712Z,9.53
2019-06-07T18:55:22.765Z,12.13
2019-06-07T18:57:56.615Z,11.12
2019-06-07T19:00:32.143Z,13.40
2019-06-07T19:03:06.697Z,9.90
2019-06-07T19:05:40.204Z,23.25
2019-06-07T19:08:13.826Z,16.97
2019-06-07T19:10:48.682Z,27.40
2019-06-07T19:13:22.447Z,10.18
2019-06-07T19:15:56.075Z,11.88
2019-06-07T19:18:29.640Z,9.95
2019-06-07T19:21:03.119Z,10.25
2019-06-07T19:23:36.692Z,11.03
2019-06-07T19:26:10.252Z,10.80
2019-06-07T19:28:43.890Z,16.93
2019-06-07T19:31:18.740Z,13.85
2019-06-07T19:33:53.121Z,30.35
2019-06-07T19:36:26.641Z,17.02
2019-06-07T19:39:02.727Z,22.98
2019-06-07T19:41:36.692Z,22.07
2019-06-07T19:44:09.950Z,13.18
2019-06-07T19:46:43.317Z,15.45
2019-06-07T19:49:16.653Z,19.07
2019-06-07T19:51:50.968Z,23.42
2019-06-07T19:54:24.298Z,29.55
2019-06-07T19:56:57.701Z,19.77
2019-06-07T19:59:31.101Z,17.48
2019-06-07T20:02:04.416Z,14.45
2019-06-07T20:04:37.799Z,12.95
2019-06-07T20:07:11.164Z,12.68
2019-06-07T20:09:44.742Z,11.68
2019-06-07T20:12:18.592Z,12.18
2019-06-07T20:14:54.002Z,13.62
2019-06-07T20:17:27.304Z,11.88
2019-06-07T20:20:00.892Z,11.63
2019-06-07T20:22:34.395Z,14.03
2019-06-07T20:25:09.241Z,14.95
2019-06-07T20:27:43.048Z,20.25
2019-06-07T20:30:17.225Z,13.88
2019-06-07T20:32:50.819Z,16.15
2019-06-07T20:35:24.491Z,25.88
2019-06-07T20:37:59.032Z,45.55
2019-06-07T20:40:32.886Z,37.50
2019-06-07T20:43:08.123Z,26.50
2019-06-07T20:45:42.070Z,22.58
2019-06-07T20:48:15.737Z,23.22
2019-06-07T20:50:49.240Z,13.98
2019-06-07T20:53:22.749Z,18.48
2019-06-07T20:55:56.849Z,21.17
2019-06-07T20:58:30.395Z,16.87
2019-06-07T21:01:06.936Z,20.70
2019-06-07T21:03:40.531Z,18.27
2019-06-07T21:06:14.141Z,22.00
2019-06-07T21:08:48.830Z,22.40
2019-06-07T21:11:22.255Z,19.67
2019-06-07T21:13:55.804Z,21.52
2019-06-07T21:16:29.462Z,20.60
2019-06-07T21:19:04.136Z,24.50
2019-06-07T21:21:37.717Z,18.23
2019-06-07T21:24:11.263Z,20.72
2019-06-07T21:26:44.725Z,17.75
2019-06-07T21:29:18.306Z,18.70
2019-06-07T21:31:51.928Z,21.00
2019-06-07T21:34:25.487Z,23.47
2019-06-07T21:36:59.045Z,23.00
2019-06-07T21:39:32.602Z,18.50
2019-06-07T21:42:06.196Z,18.23
2019-06-07T21:44:39.948Z,17.32
2019-06-07T21:47:13.473Z,17.00
2019-06-07T21:49:47.043Z,19.15
2019-06-07T21:52:20.529Z,22.50
2019-06-07T21:54:55.436Z,19.17
2019-06-07T21:57:28.937Z,17.17
2019-06-07T22:00:03.379Z,19.07
2019-06-07T22:02:38.545Z,17.37
2019-06-07T22:05:12.321Z,16.30
2019-06-07T22:07:46.171Z,17.67
2019-06-07T22:10:19.844Z,18.23
2019-06-07T22:12:53.356Z,16.17
2019-06-07T22:15:34.167Z,19.82
2019-06-07T22:18:02.218Z,17.30
2019-06-07T22:20:35.814Z,16.70
2019-06-07T22:23:09.259Z,18.12
2019-06-07T22:25:42.727Z,17.23
2019-06-07T22:28:16.240Z,18.02
2019-06-07T22:30:50.227Z,17.12
2019-06-07T22:33:23.576Z,20.20
2019-06-07T22:36:08.905Z,17.23
2019-06-07T22:38:42.463Z,17.80
2019-06-07T22:41:16.019Z,17.10
2019-06-07T22:43:59.646Z,20.02
2019-06-07T22:46:53.256Z,16.57
2019-06-07T22:49:34.486Z,16.32
2019-06-07T22:52:11.996Z,16.20
2019-06-07T22:54:44.815Z,17.40
2019-06-07T22:57:32.292Z,21.33
2019-06-07T23:00:14.296Z,17.00
2019-06-07T23:18:05.707Z,21.77
2019-06-07T23:20:39.567Z,22.77
2019-06-07T23:23:13.526Z,21.77
2019-06-07T23:25:48.103Z,21.40
2019-06-07T23:28:23.070Z,22.10
2019-06-07T23:30:58.134Z,21.90
2019-06-07T23:33:33.526Z,21.57
2019-06-07T23:36:10.990Z,21.07
2019-06-07T23:38:46.927Z,21.68
2019-06-07T23:41:22.314Z,20.92
2019-06-07T23:43:57.364Z,21.10
2019-06-07T23:46:32.531Z,23.18
2019-06-07T23:49:06.914Z,21.73
2019-06-07T23:51:41.302Z,21.50
2019-06-07T23:54:15.690Z,22.48
2019-06-07T23:56:49.997Z,24.52
2019-06-07T23:59:25.037Z,23.62
